Time;durP1;ratioP1;P1;durP2;ratioP2;P2;SDS_P1;SDS_P2;PMS_P1;PMS_P2;Temp;Humidity;BMP_temperature;BMP_pressure;BME280_temperature;BME280_humidity;BME280_pressure;Samples;Min_cycle;Max_cycle;Signal;HPM_P1;HPM_P2
2023/11/30 00:00:20;;;;;;;7.70;5.30;;;;;;;-0.02;73.24;98828.16;79907;1295;3013252;-61
2023/11/30 00:02:46;;;;;;;7.30;4.80;;;;;;;-0.11;73.14;98816.52;80027;1295;3011610;-62
2023/11/30 00:05:14;;;;;;;8.10;4.80;;;;;;;-0.14;73.35;98813.67;78765;1297;3029763;-63
2023/11/30 00:07:41;;;;;;;9.40;5.50;;;;;;;0.02;72.66;98807.38;79752;1297;3014197;-62
2023/11/30 00:10:08;;;;;;;6.90;4.90;;;;;;;-0.05;72.60;98805.15;79785;1297;3011941;-62
2023/11/30 00:12:36;;;;;;;10.80;5.10;;;;;;;-0.18;73.32;98807.23;78636;1296;3027237;-61
2023/11/30 00:15:04;;;;;;;6.40;4.40;;;;;;;-0.29;73.80;98825.24;79928;1293;3013259;-60
2023/11/30 00:17:31;;;;;;;10.80;5.80;;;;;;;-0.20;73.69;98826.58;79957;1293;3011551;-63
2023/11/30 00:19:59;;;;;;;12.20;4.50;;;;;;;-0.14;73.79;98817.13;78550;1298;3050334;-60
2023/11/30 00:22:25;;;;;;;8.50;5.50;;;;;;;0.02;73.10;98809.77;79875;1297;3013646;-62
2023/11/30 00:24:52;;;;;;;7.70;4.50;;;;;;;-0.10;73.64;98809.92;79741;1295;3011836;-62
2023/11/30 00:27:20;;;;;;;8.10;4.90;;;;;;;-0.22;74.12;98808.36;78642;1294;3028058;-62
2023/11/30 00:29:47;;;;;;;11.20;5.80;;;;;;;-0.23;74.03;98813.89;79861;1295;3018175;-63
2023/11/30 00:32:14;;;;;;;8.40;4.90;;;;;;;-0.26;74.34;98828.44;79712;1297;3011662;-61
2023/11/30 00:34:42;;;;;;;6.00;4.10;;;;;;;-0.31;74.54;98837.89;78569;1297;3028716;-61
2023/11/30 00:37:09;;;;;;;8.50;4.80;;;;;;;-0.51;75.47;98824.96;79835;1297;3013057;-61
2023/11/30 00:39:35;;;;;;;7.40;4.40;;;;;;;-0.48;75.66;98839.17;79822;1297;3011589;-61
2023/11/30 00:42:04;;;;;;;7.80;5.20;;;;;;;-0.52;75.81;98848.40;78658;1292;3026100;-61
2023/11/30 00:44:30;;;;;;;9.40;4.60;;;;;;;-0.54;75.89;98847.59;79963;1298;3013109;-61
2023/11/30 00:46:57;;;;;;;7.30;4.50;;;;;;;-0.43;75.66;98847.48;79801;1295;3011918;-60
2023/11/30 00:49:25;;;;;;;9.80;5.80;;;;;;;-0.69;76.52;98838.98;78577;1294;3049000;-63
2023/11/30 00:51:52;;;;;;;9.80;5.10;;;;;;;-0.68;77.33;98840.52;79916;1297;3018795;-61
2023/11/30 00:54:19;;;;;;;9.00;6.10;;;;;;;-0.56;76.69;98855.72;79765;1298;3013302;-62
2023/11/30 00:56:47;;;;;;;6.70;4.80;;;;;;;-0.52;76.29;98852.02;78813;1292;3026563;-60
2023/11/30 00:59:13;;;;;;;7.70;4.10;;;;;;;-0.35;76.17;98846.58;79982;1293;3012936;-62
2023/11/30 01:01:40;;;;;;;8.80;4.90;;;;;;;0.45;75.34;98842.98;79882;1295;3011625;-63
2023/11/30 01:04:08;;;;;;;9.10;4.70;;;;;;;0.60;73.72;98843.60;78487;1308;3027336;-62
2023/11/30 01:06:35;;;;;;;6.90;4.60;;;;;;;0.66;73.07;98842.88;79814;1297;3018354;-62
2023/11/30 01:09:02;;;;;;;7.60;4.60;;;;;;;0.67;72.95;98839.06;79887;1295;3013170;-62
2023/11/30 01:11:31;;;;;;;9.70;5.80;;;;;;;0.46;72.96;98842.11;78548;1294;3052228;-62
2023/11/30 01:13:57;;;;;;;10.50;6.10;;;;;;;0.20;73.52;98839.41;79969;1293;3018552;-64
2023/11/30 01:16:24;;;;;;;12.50;6.90;;;;;;;0.13;73.60;98827.20;79667;1292;3011517;-65
2023/11/30 01:18:52;;;;;;;11.50;6.00;;;;;;;0.08;73.93;98824.77;78481;1297;3024913;-62
2023/11/30 01:21:20;;;;;;;11.60;6.70;;;;;;;-0.05;74.40;98816.85;79830;1298;3013286;-62
2023/11/30 01:23:46;;;;;;;8.40;4.60;;;;;;;-0.16;74.73;98824.23;79844;1296;3011471;-62
2023/11/30 01:26:14;;;;;;;6.70;5.00;;;;;;;-0.18;74.25;98825.66;78611;1298;3051107;-61
2023/11/30 01:28:41;;;;;;;8.90;5.90;;;;;;;-0.37;74.59;98825.99;79962;1297;3018365;-61
2023/11/30 01:31:09;;;;;;;7.00;4.50;;;;;;;-0.36;74.82;98848.15;79703;1295;3011636;-62
2023/11/30 01:33:37;;;;;;;7.20;4.10;;;;;;;-0.35;74.61;98849.31;78832;1294;3051496;-61
2023/11/30 01:36:05;;;;;;;8.30;4.80;;;;;;;-0.45;74.89;98852.34;79644;1308;3013333;-63
2023/11/30 01:38:32;;;;;;;8.50;4.60;;;;;;;-0.64;75.77;98859.70;79796;1293;3011456;-62
2023/11/30 01:41:00;;;;;;;6.70;4.30;;;;;;;-0.51;75.57;98850.61;78572;1297;3051585;-63
2023/11/30 01:43:27;;;;;;;9.10;5.20;;;;;;;-0.49;75.15;98855.71;79819;1292;3013382;-64
2023/11/30 01:45:54;;;;;;;7.80;5.20;;;;;;;-0.63;75.62;98858.48;77309;1294;3716367;-62
2023/11/30 01:48:20;;;;;;;5.80;4.20;;;;;;;-0.67;76.10;98866.14;79814;1297;3011781;-61
2023/11/30 01:50:48;;;;;;;7.60;5.70;;;;;;;-0.63;76.09;98859.67;78572;1297;3050846;-61
2023/11/30 01:53:15;;;;;;;8.20;4.70;;;;;;;-0.73;76.15;98856.83;79955;1297;3013089;-61
2023/11/30 01:55:42;;;;;;;9.00;5.90;;;;;;;-0.85;75.72;98850.08;79885;1297;3011541;-61
2023/11/30 01:58:10;;;;;;;9.50;5.80;;;;;;;-0.90;75.64;98856.73;78414;1295;3026370;-64
2023/11/30 02:00:37;;;;;;;11.70;6.30;;;;;;;-0.92;75.69;98860.88;79581;1300;3013129;-64
2023/11/30 02:03:04;;;;;;;10.00;7.00;;;;;;;-1.01;75.87;98866.60;79521;1293;3011570;-62
2023/11/30 02:05:32;;;;;;;11.90;7.10;;;;;;;-0.95;75.49;98874.37;78604;1297;3052695;-62
2023/11/30 02:08:00;;;;;;;11.20;6.70;;;;;;;-1.02;75.73;98890.85;79606;1299;3013060;-62
2023/11/30 02:10:27;;;;;;;9.00;5.70;;;;;;;-0.82;75.01;98898.14;79767;1294;3013438;-61
2023/11/30 02:12:55;;;;;;;9.70;6.00;;;;;;;-0.73;74.46;98912.90;78440;1297;3048939;-63
2023/11/30 02:15:23;;;;;;;8.70;5.50;;;;;;;-0.85;74.93;98921.59;79788;1297;3021385;-62
2023/11/30 02:17:50;;;;;;;11.60;5.50;;;;;;;-0.81;75.10;98918.92;79877;1298;3011452;-63
2023/11/30 02:20:18;;;;;;;8.10;4.00;;;;;;;-0.82;75.26;98913.27;78362;1297;3051966;-63
2023/11/30 02:22:46;;;;;;;8.20;4.70;;;;;;;-0.80;75.16;98923.87;79609;1297;3013045;-63
2023/11/30 02:25:12;;;;;;;8.70;5.20;;;;;;;-0.87;75.54;98921.64;79716;1295;3012002;-63
2023/11/30 02:27:40;;;;;;;7.50;4.40;;;;;;;-0.88;75.82;98920.61;78675;1295;3048982;-61
2023/11/30 02:30:08;;;;;;;9.60;4.50;;;;;;;-0.79;75.56;98920.27;79746;1295;3013142;-60
2023/11/30 02:32:35;;;;;;;6.80;4.80;;;;;;;-0.90;75.46;98929.62;79800;1297;3013869;-63
2023/11/30 02:35:04;;;;;;;6.30;4.50;;;;;;;-0.91;75.46;98926.55;78682;1298;3052062;-61
2023/11/30 02:37:31;;;;;;;9.20;5.20;;;;;;;-0.89;75.47;98938.36;79998;1297;3013383;-63
2023/11/30 02:39:58;;;;;;;7.30;4.20;;;;;;;-0.88;75.51;98952.43;79936;1297;3011544;-63
2023/11/30 02:42:26;;;;;;;9.80;4.40;;;;;;;-0.88;75.42;98954.33;78720;1297;3048069;-61
2023/11/30 02:44:52;;;;;;;7.70;4.60;;;;;;;-0.82;75.30;98957.45;79788;1293;3012973;-61
2023/11/30 02:47:19;;;;;;;8.20;5.20;;;;;;;-0.86;74.81;98954.47;80013;1292;3012428;-61
2023/11/30 02:49:47;;;;;;;9.90;5.30;;;;;;;-0.97;74.68;98960.71;78734;1297;3026515;-62
2023/11/30 02:52:14;;;;;;;6.20;4.60;;;;;;;-0.95;75.24;98951.56;79699;1292;3019307;-62
2023/11/30 02:54:41;;;;;;;7.10;4.20;;;;;;;-1.03;74.65;98946.56;79967;1297;3011494;-61
2023/11/30 02:57:09;;;;;;;7.90;4.60;;;;;;;-0.97;74.63;98948.85;78907;1296;3025874;-62
2023/11/30 02:59:35;;;;;;;7.50;4.20;;;;;;;-0.96;74.15;98949.17;79948;1292;3011458;-62
2023/11/30 03:02:02;;;;;;;7.40;4.60;;;;;;;-1.06;74.29;98946.13;79935;1292;3011664;-65
2023/11/30 03:04:30;;;;;;;8.00;4.40;;;;;;;-1.11;74.30;98960.67;78586;1297;3026513;-60
2023/11/30 03:06:57;;;;;;;9.20;5.10;;;;;;;-1.12;74.30;98962.59;80109;1298;3013027;-62
2023/11/30 03:09:24;;;;;;;9.00;4.70;;;;;;;-1.05;74.33;98965.53;79844;1297;3011361;-63
2023/11/30 03:11:52;;;;;;;8.10;4.90;;;;;;;-1.08;74.44;98975.06;78791;1297;3026495;-61
2023/11/30 03:14:18;;;;;;;6.50;4.40;;;;;;;-1.10;75.02;98978.52;80418;1292;3013409;-60
2023/11/30 03:16:45;;;;;;;5.30;3.20;;;;;;;-1.00;74.73;98989.15;80019;1295;3011703;-60
2023/11/30 03:19:13;;;;;;;7.40;4.70;;;;;;;-0.96;74.37;98982.19;78589;1297;3025325;-62
2023/11/30 03:21:40;;;;;;;6.50;4.30;;;;;;;-0.91;73.98;98991.54;79849;1298;3013384;-61
2023/11/30 03:24:08;;;;;;;7.40;4.50;;;;;;;-0.95;74.20;98999.88;79832;1298;3011656;-59
2023/11/30 03:26:36;;;;;;;9.00;4.40;;;;;;;-0.86;73.98;99004.67;78493;1292;3049531;-62
2023/11/30 03:29:03;;;;;;;7.20;3.40;;;;;;;-0.84;74.10;99010.13;79856;1298;3014786;-60
2023/11/30 03:31:30;;;;;;;7.40;3.80;;;;;;;-0.83;74.07;99011.84;80128;1293;3011565;-62
2023/11/30 03:33:58;;;;;;;7.00;4.20;;;;;;;-0.85;74.16;99012.05;78940;1293;3051079;-62
2023/11/30 03:36:25;;;;;;;9.50;5.10;;;;;;;-0.81;74.07;98994.92;79958;1297;3019246;-61
2023/11/30 03:38:53;;;;;;;8.40;4.30;;;;;;;-0.81;73.73;98991.67;79878;1297;3011934;-64
2023/11/30 03:41:24;;;;;;;7.80;4.60;;;;;;;-0.94;73.80;98992.98;78912;1297;3048361;-61
2023/11/30 03:43:51;;;;;;;6.90;4.50;;;;;;;-1.15;73.90;99002.69;80041;1292;3011386;-62
2023/11/30 03:46:24;;;;;;;7.90;3.70;;;;;;;-1.05;73.93;99000.77;79275;1302;3013337;-61
2023/11/30 03:48:52;;;;;;;5.50;3.60;;;;;;;-1.19;73.27;99009.31;79792;1299;3012709;-62
2023/11/30 03:51:20;;;;;;;9.40;3.80;;;;;;;-1.20;73.38;99017.42;78756;1298;3052828;-62
2023/11/30 03:53:47;;;;;;;8.70;4.60;;;;;;;-1.10;73.24;99015.66;79888;1298;3011726;-63
2023/11/30 03:56:13;;;;;;;7.70;4.30;;;;;;;-1.09;72.87;99022.87;79779;1298;3011862;-62
2023/11/30 03:58:41;;;;;;;8.70;4.60;;;;;;;-1.06;72.96;99026.94;78620;1296;3028287;-61
2023/11/30 04:01:09;;;;;;;8.70;4.50;;;;;;;-1.05;72.97;99035.33;80016;1292;3015942;-62
2023/11/30 04:03:36;;;;;;;9.70;5.10;;;;;;;-1.04;72.60;99032.91;79841;1297;3013190;-62
2023/11/30 04:06:04;;;;;;;9.60;5.00;;;;;;;-1.02;72.65;99032.16;78526;1298;3051815;-62
2023/11/30 04:08:31;;;;;;;9.80;4.00;;;;;;;-1.02;72.39;99038.02;79784;1297;3013714;-62
2023/11/30 04:10:58;;;;;;;7.00;4.10;;;;;;;-0.97;72.35;99048.41;79906;1295;3012974;-60
2023/11/30 04:13:26;;;;;;;8.70;4.70;;;;;;;-1.00;72.02;99061.52;78577;1292;3049042;-61
2023/11/30 04:15:52;;;;;;;8.30;4.30;;;;;;;-1.02;71.77;99046.95;79947;1292;3020635;-61
2023/11/30 04:18:21;;;;;;;8.80;4.70;;;;;;;-1.05;72.09;99050.45;80028;1294;3011671;-64
2023/11/30 04:20:49;;;;;;;7.20;4.60;;;;;;;-1.09;71.95;99056.71;78735;1297;3052727;-61
2023/11/30 04:23:16;;;;;;;7.00;3.90;;;;;;;-1.11;71.85;99057.28;79775;1295;3013489;-63
2023/11/30 04:25:43;;;;;;;9.60;4.50;;;;;;;-1.13;71.76;99062.29;80076;1292;3013504;-63
2023/11/30 04:28:11;;;;;;;7.70;4.30;;;;;;;-1.17;71.98;99061.70;78453;1298;3050333;-62
2023/11/30 04:30:38;;;;;;;11.40;5.00;;;;;;;-1.15;72.41;99054.79;79894;1292;3018387;-63
2023/11/30 04:33:04;;;;;;;7.70;4.60;;;;;;;-1.06;72.22;99046.17;79710;1297;3011346;-63
2023/11/30 04:35:34;;;;;;;6.10;3.90;;;;;;;-1.15;71.99;99048.75;78634;1297;3051486;-61
2023/11/30 04:38:01;;;;;;;7.20;3.70;;;;;;;-1.10;72.42;99053.13;79993;1298;3013113;-62
2023/11/30 04:40:28;;;;;;;9.30;4.90;;;;;;;-1.14;72.66;99057.68;80055;1297;3011616;-62
2023/11/30 04:42:56;;;;;;;11.30;4.50;;;;;;;-1.23;72.74;99055.95;78516;1293;3048529;-62
2023/11/30 04:45:23;;;;;;;7.00;4.40;;;;;;;-1.22;72.93;99065.02;79634;1298;3013672;-62
2023/11/30 04:47:50;;;;;;;11.30;5.20;;;;;;;-1.22;73.24;99076.92;79959;1299;3013519;-60
2023/11/30 04:50:18;;;;;;;12.90;5.90;;;;;;;-1.14;72.93;99072.80;78670;1293;3025395;-64
2023/11/30 04:52:45;;;;;;;14.10;6.80;;;;;;;-1.04;72.62;99078.29;79825;1292;3012696;-60
2023/11/30 04:55:12;;;;;;;13.80;7.20;;;;;;;-1.03;72.49;99086.34;79944;1292;3012105;-63
2023/11/30 04:57:40;;;;;;;11.90;6.40;;;;;;;-1.07;72.45;99089.18;78779;1298;3049989;-62
2023/11/30 05:00:09;;;;;;;13.40;7.70;;;;;;;-0.92;72.36;99100.06;79793;1293;3012647;-62
2023/11/30 05:02:36;;;;;;;12.20;6.80;;;;;;;-0.88;72.21;99097.39;80000;1298;3011634;-62
2023/11/30 05:05:06;;;;;;;12.00;6.90;;;;;;;-0.99;71.96;99092.63;78602;1293;3050869;-63
2023/11/30 05:07:32;;;;;;;13.40;7.50;;;;;;;-1.01;71.98;99094.39;79885;1295;3013075;-63
2023/11/30 05:10:00;;;;;;;13.90;6.20;;;;;;;-1.04;71.97;99094.27;79758;1293;3012016;-62
2023/11/30 05:12:28;;;;;;;14.40;7.20;;;;;;;-1.04;71.41;99092.88;78762;1293;3049403;-62
2023/11/30 05:14:54;;;;;;;13.20;7.30;;;;;;;-1.08;71.84;99101.91;79837;1293;3013089;-62
2023/11/30 05:17:21;;;;;;;15.10;7.80;;;;;;;-1.07;72.45;99111.67;79715;1297;3011620;-60
2023/11/30 05:19:49;;;;;;;16.70;8.00;;;;;;;-1.05;72.47;99115.96;78771;1297;3028308;-62
2023/11/30 05:22:16;;;;;;;13.70;7.60;;;;;;;-0.97;72.33;99119.77;79783;1297;3018563;-61
2023/11/30 05:24:43;;;;;;;16.30;8.10;;;;;;;-0.86;72.04;99127.27;79968;1293;3012283;-62
2023/11/30 05:27:11;;;;;;;12.80;8.10;;;;;;;-0.89;71.53;99124.58;78615;1298;3029134;-62
2023/11/30 05:29:38;;;;;;;15.70;8.60;;;;;;;-0.90;71.80;99139.39;79659;1303;3013110;-60
2023/11/30 05:32:05;;;;;;;16.30;8.90;;;;;;;-1.08;72.55;99150.23;79797;1299;3013853;-62
2023/11/30 05:34:35;;;;;;;18.20;9.30;;;;;;;-1.04;72.42;99153.41;78673;1297;3029046;-61
2023/11/30 05:37:05;;;;;;;25.50;10.80;;;;;;;-1.00;72.13;99158.16;79905;1295;3012793;-63
2023/11/30 05:39:36;;;;;;;22.90;10.90;;;;;;;-1.00;72.65;99160.05;78404;1297;3051668;-64
2023/11/30 05:42:04;;;;;;;18.40;9.60;;;;;;;-0.95;72.72;99153.59;79799;1294;3011899;-64
2023/11/30 05:44:32;;;;;;;17.60;9.10;;;;;;;-0.94;72.66;99150.98;78767;1294;3026808;-62
2023/11/30 05:46:58;;;;;;;19.20;9.50;;;;;;;-0.91;72.64;99160.05;79887;1295;3013033;-61
2023/11/30 05:49:26;;;;;;;22.50;10.00;;;;;;;-0.83;72.43;99159.73;79839;1295;3013588;-63
2023/11/30 05:51:54;;;;;;;20.30;9.30;;;;;;;-0.87;73.10;99165.30;78788;1294;3026613;-62
2023/11/30 05:54:21;;;;;;;24.80;10.40;;;;;;;-0.84;73.07;99172.13;79622;1294;3013662;-63
2023/11/30 05:56:47;;;;;;;18.30;10.10;;;;;;;-0.88;73.20;99174.60;79879;1297;3011635;-62
2023/11/30 05:59:15;;;;;;;16.70;8.80;;;;;;;-0.85;73.34;99179.55;78553;1297;3026585;-63
2023/11/30 06:01:42;;;;;;;26.10;10.30;;;;;;;-0.91;73.71;99178.77;79790;1297;3013320;-63
2023/11/30 06:04:09;;;;;;;28.60;10.00;;;;;;;-0.87;73.86;99174.94;79686;1298;3013941;-64
2023/11/30 06:06:37;;;;;;;30.50;10.40;;;;;;;-0.77;73.80;99173.54;78586;1297;3026186;-62
2023/11/30 06:09:04;;;;;;;29.30;11.20;;;;;;;-0.74;73.82;99179.68;79575;1294;3011847;-61
2023/11/30 06:11:31;;;;;;;27.00;11.60;;;;;;;-0.65;73.40;99181.21;79946;1297;3011752;-62
2023/11/30 06:13:59;;;;;;;30.00;11.70;;;;;;;-0.73;72.76;99182.23;78603;1297;3026425;-63
2023/11/30 06:16:26;;;;;;;32.20;13.60;;;;;;;-0.81;73.10;99182.23;79817;1298;3018617;-64
2023/11/30 06:18:52;;;;;;;36.00;14.50;;;;;;;-0.89;73.37;99184.26;80048;1298;3013502;-61
2023/11/30 06:21:21;;;;;;;38.00;13.50;;;;;;;-0.80;73.47;99185.47;78517;1294;3026092;-63
2023/11/30 06:23:48;;;;;;;24.00;11.00;;;;;;;-0.78;72.81;99193.16;79736;1296;3013420;-63
2023/11/30 06:26:14;;;;;;;22.70;11.40;;;;;;;-1.00;72.80;99199.08;79748;1293;3011485;-63
2023/11/30 06:28:43;;;;;;;19.10;8.70;;;;;;;-0.96;73.27;99197.98;78660;1297;3049073;-62
2023/11/30 06:31:09;;;;;;;17.20;9.50;;;;;;;-1.05;73.05;99205.17;79996;1294;3013082;-61
2023/11/30 06:33:36;;;;;;;16.70;9.60;;;;;;;-1.04;73.30;99212.90;79782;1292;3013268;-63
2023/11/30 06:36:05;;;;;;;19.50;10.70;;;;;;;-1.05;73.68;99215.67;78542;1298;3026476;-63
2023/11/30 06:38:31;;;;;;;22.40;10.70;;;;;;;-0.91;73.55;99218.86;79920;1295;3015744;-64
2023/11/30 06:41:00;;;;;;;20.90;10.70;;;;;;;-0.80;73.54;99215.75;79624;1296;3011937;-63
2023/11/30 06:43:28;;;;;;;23.30;10.20;;;;;;;-0.70;73.36;99221.41;78604;1293;3048521;-63
2023/11/30 06:45:55;;;;;;;24.40;11.90;;;;;;;-0.67;72.85;99224.09;79715;1294;3013559;-63
2023/11/30 06:48:24;;;;;;;16.40;8.80;;;;;;;-0.59;73.03;99229.80;79840;1293;3013230;-63
2023/11/30 06:50:52;;;;;;;20.10;9.50;;;;;;;-0.59;72.78;99227.90;78512;1294;3052605;-63
2023/11/30 06:53:19;;;;;;;15.70;8.10;;;;;;;-0.56;72.97;99232.33;80068;1296;3018912;-63
2023/11/30 06:55:46;;;;;;;12.50;5.70;;;;;;;-0.79;72.68;99235.34;79944;1292;3011636;-63
2023/11/30 06:58:14;;;;;;;12.80;6.10;;;;;;;-0.70;72.45;99239.81;78784;1297;3026584;-63
2023/11/30 07:00:41;;;;;;;11.30;5.90;;;;;;;-0.52;72.13;99241.36;79923;1292;3012992;-63
2023/11/30 07:03:08;;;;;;;11.30;6.10;;;;;;;-0.45;71.69;99243.46;79982;1294;3011333;-62
2023/11/30 07:05:36;;;;;;;13.20;6.60;;;;;;;-0.41;71.89;99242.18;78645;1296;3026079;-63
2023/11/30 07:08:03;;;;;;;16.00;6.70;;;;;;;-0.41;71.82;99247.52;80224;1292;3018330;-62
2023/11/30 07:10:30;;;;;;;12.00;6.90;;;;;;;-0.52;71.45;99249.80;80093;1292;3011776;-61
2023/11/30 07:12:58;;;;;;;8.90;4.80;;;;;;;-0.37;71.94;99252.61;78739;1293;3026419;-62
2023/11/30 07:15:24;;;;;;;12.60;5.90;;;;;;;-0.16;70.62;99257.70;80220;1297;3014411;-63
2023/11/30 07:17:51;;;;;;;12.20;5.90;;;;;;;-0.28;69.88;99263.29;79657;1298;3011794;-64
2023/11/30 07:20:19;;;;;;;11.60;5.50;;;;;;;-0.26;69.47;99268.05;78738;1295;3025654;-63
2023/11/30 07:22:46;;;;;;;14.70;6.00;;;;;;;-0.24;68.87;99267.52;79880;1296;3012910;-62
2023/11/30 07:25:13;;;;;;;15.60;6.10;;;;;;;-0.32;68.69;99269.57;79851;1292;3013705;-63
2023/11/30 07:27:41;;;;;;;13.30;5.70;;;;;;;-0.38;68.95;99275.17;78795;1292;3028778;-63
2023/11/30 07:30:09;;;;;;;13.80;6.70;;;;;;;-0.26;69.41;99281.30;80025;1297;3018153;-63
2023/11/30 07:32:36;;;;;;;17.10;7.40;;;;;;;-0.26;69.26;99293.54;79898;1293;3011594;-64
2023/11/30 07:35:06;;;;;;;17.00;6.70;;;;;;;-0.15;69.37;99297.98;78617;1297;3052705;-63
2023/11/30 07:37:33;;;;;;;19.90;7.70;;;;;;;-0.18;68.63;99302.33;79743;1291;3012826;-63
2023/11/30 07:40:00;;;;;;;16.20;6.90;;;;;;;-0.45;68.41;99307.14;80027;1292;3011961;-64
2023/11/30 07:42:28;;;;;;;13.30;5.30;;;;;;;-0.25;69.26;99306.77;78707;1297;3048142;-62
2023/11/30 07:44:55;;;;;;;13.10;6.30;;;;;;;-0.25;68.75;99310.38;79871;1297;3013606;-63
2023/11/30 07:47:21;;;;;;;12.30;5.40;;;;;;;-0.17;68.35;99313.15;79851;1298;3011879;-62
2023/11/30 07:49:49;;;;;;;12.10;6.40;;;;;;;-0.06;68.44;99315.89;78631;1296;3026554;-62
2023/11/30 07:52:16;;;;;;;10.70;5.30;;;;;;;-0.02;68.13;99311.31;80103;1295;3018398;-62
2023/11/30 07:54:43;;;;;;;13.20;5.50;;;;;;;0.03;68.07;99319.50;80135;1296;3013459;-63
2023/11/30 07:57:11;;;;;;;16.00;6.60;;;;;;;-0.08;67.61;99316.42;78795;1292;3025796;-63
2023/11/30 07:59:38;;;;;;;14.70;5.90;;;;;;;-0.26;68.21;99318.49;79942;1296;3012887;-61
2023/11/30 08:02:05;;;;;;;12.40;6.10;;;;;;;-0.26;68.34;99323.48;80069;1292;3011677;-63
2023/11/30 08:04:36;;;;;;;14.10;6.40;;;;;;;-0.27;68.44;99326.28;78547;1297;3025831;-62
2023/11/30 08:07:03;;;;;;;14.40;6.50;;;;;;;-0.08;68.27;99333.98;79905;1291;3011496;-61
2023/11/30 08:09:31;;;;;;;11.00;5.50;;;;;;;-0.05;68.13;99343.41;78781;1293;3027900;-63
2023/11/30 08:11:58;;;;;;;10.50;5.50;;;;;;;0.10;67.13;99346.55;79899;1295;3020485;-62
2023/11/30 08:14:24;;;;;;;11.10;5.70;;;;;;;-0.09;67.21;99343.66;79846;1297;3011790;-62
2023/11/30 08:16:53;;;;;;;12.20;5.90;;;;;;;-0.17;68.37;99345.87;78738;1295;3026606;-62
2023/11/30 08:19:19;;;;;;;11.00;6.00;;;;;;;-0.09;67.68;99348.83;79755;1297;3012943;-63
2023/11/30 08:21:47;;;;;;;12.10;5.80;;;;;;;-0.06;67.74;99345.33;79807;1295;3013362;-64
2023/11/30 08:24:15;;;;;;;12.10;6.20;;;;;;;0.15;67.47;99340.29;78856;1297;3052294;-63
2023/11/30 08:26:41;;;;;;;12.50;5.70;;;;;;;0.19;66.69;99339.67;79953;1292;3020685;-63
2023/11/30 08:29:08;;;;;;;10.10;4.80;;;;;;;0.27;66.22;99339.33;79824;1296;3011628;-62
2023/11/30 08:31:36;;;;;;;13.70;5.40;;;;;;;0.23;65.51;99340.10;78709;1292;3028088;-62
2023/11/30 08:34:03;;;;;;;9.70;5.80;;;;;;;0.27;66.12;99341.93;79883;1297;3013043;-64
2023/11/30 08:36:30;;;;;;;11.30;5.40;;;;;;;0.34;66.22;99346.09;79988;1292;3011615;-63
2023/11/30 08:38:58;;;;;;;13.50;6.00;;;;;;;0.41;66.04;99341.45;78991;1297;3027620;-62
2023/11/30 08:41:25;;;;;;;10.70;5.70;;;;;;;0.30;65.95;99345.65;79759;1292;3013073;-64
2023/11/30 08:43:51;;;;;;;13.80;6.50;;;;;;;0.16;65.73;99342.48;79869;1293;3012162;-62
2023/11/30 08:46:19;;;;;;;11.90;5.50;;;;;;;0.34;66.19;99338.15;78531;1296;3026506;-64
2023/11/30 08:48:46;;;;;;;15.80;6.50;;;;;;;0.23;65.90;99334.08;79680;1295;3012928;-62
2023/11/30 08:51:13;;;;;;;13.40;6.80;;;;;;;0.44;66.27;99335.17;79887;1294;3012792;-65
2023/11/30 08:53:41;;;;;;;15.00;7.40;;;;;;;0.52;65.91;99338.98;78690;1294;3051433;-66
2023/11/30 08:56:10;;;;;;;18.40;8.20;;;;;;;0.61;65.58;99343.63;80040;1292;3019601;-61
2023/11/30 08:58:37;;;;;;;15.20;6.50;;;;;;;0.74;65.20;99345.56;79907;1292;3013316;-62
2023/11/30 09:01:05;;;;;;;16.50;7.20;;;;;;;0.75;64.69;99351.75;78822;1296;3050823;-63
2023/11/30 09:03:32;;;;;;;10.10;5.30;;;;;;;0.63;64.43;99350.98;80072;1293;3013121;-63
2023/11/30 09:05:59;;;;;;;14.00;6.60;;;;;;;0.81;64.13;99350.23;79919;1298;3011901;-63
2023/11/30 09:08:27;;;;;;;12.40;5.70;;;;;;;0.87;64.16;99344.75;78915;1294;3051837;-64
2023/11/30 09:10:54;;;;;;;12.90;6.90;;;;;;;0.82;64.55;99345.20;79922;1296;3018879;-63
2023/11/30 09:13:20;;;;;;;12.50;6.70;;;;;;;0.80;64.89;99343.02;79907;1294;3011474;-63
2023/11/30 09:15:48;;;;;;;16.10;6.80;;;;;;;0.95;64.84;99345.10;78456;1296;3028285;-64
2023/11/30 09:18:15;;;;;;;17.30;7.30;;;;;;;1.04;64.50;99343.50;80011;1296;3013665;-64
2023/11/30 09:20:42;;;;;;;14.60;7.40;;;;;;;1.11;64.58;99343.69;80051;1297;3013157;-61
2023/11/30 09:23:10;;;;;;;18.70;7.70;;;;;;;1.19;64.05;99344.87;79047;1293;3025844;-63
2023/11/30 09:25:36;;;;;;;15.50;7.10;;;;;;;1.18;63.97;99339.73;80235;1292;3011585;-63
2023/11/30 09:28:03;;;;;;;13.10;6.80;;;;;;;1.16;64.15;99349.95;79800;1294;3012708;-62
2023/11/30 09:30:31;;;;;;;13.10;6.20;;;;;;;1.18;64.25;99359.21;78855;1297;3025959;-62
2023/11/30 09:32:59;;;;;;;11.90;6.30;;;;;;;1.42;63.79;99365.03;80206;1294;3018628;-63
2023/11/30 09:35:25;;;;;;;17.00;7.90;;;;;;;1.24;63.21;99369.08;80267;1291;3011690;-61
2023/11/30 09:37:53;;;;;;;14.60;7.50;;;;;;;1.00;63.84;99362.04;78750;1291;3027909;-61
2023/11/30 09:40:20;;;;;;;12.20;7.00;;;;;;;1.01;63.86;99362.73;79885;1292;3013441;-61
2023/11/30 09:42:47;;;;;;;13.80;5.50;;;;;;;1.21;63.82;99365.70;79838;1297;3011918;-63
2023/11/30 09:45:15;;;;;;;12.00;6.00;;;;;;;1.26;62.57;99362.46;78896;1291;3028209;-63
2023/11/30 09:47:41;;;;;;;12.30;5.90;;;;;;;1.12;62.26;99361.78;80184;1294;3018801;-65
2023/11/30 09:50:09;;;;;;;14.00;6.20;;;;;;;1.30;62.05;99355.83;80103;1297;3013012;-61
2023/11/30 09:52:37;;;;;;;11.30;5.90;;;;;;;1.25;61.79;99364.92;78599;1297;3026096;-61
2023/11/30 09:55:05;;;;;;;12.70;6.30;;;;;;;1.34;61.74;99366.26;79872;1292;3013482;-60
2023/11/30 09:57:34;;;;;;;12.40;6.20;;;;;;;1.46;61.65;99360.61;79424;1292;3011834;-61
2023/11/30 10:00:01;;;;;;;15.80;6.20;;;;;;;1.47;61.71;99371.80;80034;1295;3013239;-62
2023/11/30 10:02:33;;;;;;;13.60;6.40;;;;;;;1.44;62.14;99366.70;79446;1292;3011649;-66
2023/11/30 10:05:01;;;;;;;12.60;6.10;;;;;;;1.53;61.71;99366.64;80102;1291;3013407;-61
2023/11/30 10:07:29;;;;;;;32.60;9.70;;;;;;;1.35;61.60;99367.45;79924;1295;3011412;-61
2023/11/30 10:09:57;;;;;;;14.40;7.30;;;;;;;1.17;61.73;99364.94;78762;1294;3051093;-63
2023/11/30 10:12:24;;;;;;;17.50;7.90;;;;;;;1.09;61.69;99371.50;80144;1292;3019666;-62
2023/11/30 10:14:59;;;;;;;18.60;7.80;;;;;;;1.27;63.01;99372.13;80042;1291;3013057;-63
2023/11/30 10:17:27;;;;;;;;;;;;;;;1.64;62.53;99372.94;78609;1295;3050904;-63
2023/11/30 10:19:55;;;;;;;10.70;5.20;;;;;;;1.53;60.98;99380.11;79945;1292;3013806;-65
2023/11/30 10:22:22;;;;;;;10.00;5.30;;;;;;;1.60;60.10;99375.10;79740;1295;3011541;-64
2023/11/30 10:24:50;;;;;;;12.60;5.80;;;;;;;1.65;60.70;99373.27;78439;1295;3051557;-62
2023/11/30 10:27:21;;;;;;;12.60;7.30;;;;;;;1.75;61.29;99371.80;79845;1292;3012994;-62
2023/11/30 10:29:49;;;;;;;15.00;6.80;;;;;;;1.84;61.67;99370.00;79188;1295;3053010;-63
2023/11/30 10:32:16;;;;;;;11.40;5.70;;;;;;;1.93;61.78;99371.13;80090;1291;3014716;-63
2023/11/30 10:34:46;;;;;;;10.20;6.10;;;;;;;2.01;61.49;99376.81;79762;1294;3011784;-61
2023/11/30 10:37:19;;;;;;;13.30;6.80;;;;;;;2.21;61.51;99372.96;78403;1297;3068179;-65
2023/11/30 10:40:00;;;;;;;11.80;6.40;;;;;;;2.00;61.34;99375.30;79658;1291;3011987;-65
2023/11/30 10:42:28;;;;;;;13.60;6.00;;;;;;;1.85;61.50;99369.10;78580;1294;3056880;-64
2023/11/30 10:44:55;;;;;;;13.30;6.30;;;;;;;1.90;60.61;99370.17;79857;1291;3020844;-64
2023/11/30 10:47:22;;;;;;;14.10;6.70;;;;;;;2.14;60.17;99374.39;79694;1292;3011425;-64
2023/11/30 10:49:50;;;;;;;15.60;5.50;;;;;;;2.17;59.16;99375.52;78687;1297;3025677;-62
2023/11/30 10:52:17;;;;;;;29.10;9.50;;;;;;;2.12;59.69;99375.80;79728;1294;3019232;-62
2023/11/30 10:55:14;;;;;;;19.10;9.00;;;;;;;2.17;60.02;99375.32;80107;1295;3013045;-63
2023/11/30 10:57:44;;;;;;;11.80;5.60;;;;;;;2.02;59.25;99372.82;78577;1295;3056969;-63
2023/11/30 11:00:12;;;;;;;9.80;5.10;;;;;;;2.02;58.27;99374.02;80134;1295;3011877;-63
2023/11/30 11:02:45;;;;;;;27.70;8.10;;;;;;;1.95;58.78;99373.34;78865;1294;3026606;-63
2023/11/30 11:05:13;;;;;;;26.50;10.30;;;;;;;2.09;58.28;99378.98;79889;1291;3012936;-64
2023/11/30 11:07:48;;;;;;;25.70;8.60;;;;;;;2.21;57.79;99384.04;78869;1294;3053137;-62
2023/11/30 11:10:21;;;;;;;12.00;4.80;;;;;;;2.37;56.70;99387.75;79208;1293;3011509;-60
2023/11/30 11:12:49;;;;;;;7.60;4.20;;;;;;;2.32;55.22;99386.16;79945;1294;3012329;-62
2023/11/30 11:15:22;;;;;;;6.90;3.60;;;;;;;1.91;53.64;99388.80;78576;1292;3068278;-65